KTEB/TEB METAR and TAF weather

Enter ICAO airport designator
Station Type Date Time Source
KTEB METAR 2019/11/22 00:51 UTC NOAA

KTEB 220051Z 19007KT 10SM CLR 10/03 A3006 RMK AO2 SLP177 T01000033


Station Type Date Time Source
KTEB Decoded METAR 2019/11/22 00:51 UTC NOAA

TETERBORO AIRPORT, NJ, United States (KTEB) 40-52N 74-03W 7M
Nov 21, 2019 - 07:51 PM EST / 2019.11.22 0051 UTC
Wind: from the S (190 degrees) at 8 MPH (7 KT):0
Visibility: 10 mile(s):0
Sky conditions: clear
Temperature: 50.0 F (10.0 C)
Dew Point: 37.9 F (3.3 C)
Relative Humidity: 63%
Pressure (altimeter): 30.06 in. Hg (1017 hPa)
ob: KTEB 220051Z 19007KT 10SM CLR 10/03 A3006 RMK AO2 SLP177 T01000033
cycle: 1

Station Type Date Time Source
KTEB TAF 2019/11/21 21:48 UTC NOAA

TAF
AMD KTEB 212045Z 2121/2224 22006KT P6SM BKN250
FM220000 VRB05KT P6SM BKN250
FM220900 22006KT P6SM SCT030 BKN050 BKN100
FM221500 23010G17KT P6SM SCT030 BKN050 BKN100
FM221900 29014G23KT P6SM SCT030 SCT050 BKN120

Example: see airport list